Time;durP1;ratioP1;P1;durP2;ratioP2;P2;SDS_P1;SDS_P2;PMS_P1;PMS_P2;Temp;Humidity;BMP_temperature;BMP_pressure;BME280_temperature;BME280_humidity;BME280_pressure;Samples;Min_cycle;Max_cycle;Signal;HPM_P1;HPM_P2
2022/02/03 00:01:20;;;;;;;111.18;42.83;;;-1.90;99.90;;;;;;5056607;28;20033;-76
2022/02/03 00:03:55;;;;;;;114.82;43.97;;;-1.80;99.90;;;;;;5055480;28;20475;-76
2022/02/03 00:06:31;;;;;;;120.57;46.72;;;-1.80;99.90;;;;;;5055503;28;20033;-77
2022/02/03 00:09:52;;;;;;;126.22;47.05;;;-1.80;99.90;;;;;;5055201;28;20422;-76
2022/02/03 00:22:17;;;;;;;117.32;50.13;;;-1.80;99.90;;;;;;5056212;28;20076;-76
2022/02/03 00:25:10;;;;;;;124.95;50.15;;;-1.80;99.90;;;;;;5054981;28;20021;-76
2022/02/03 00:27:53;;;;;;;124.85;47.95;;;-1.80;99.90;;;;;;5055047;28;20112;-76
2022/02/03 00:30:21;;;;;;;113.95;48.28;;;-1.80;99.90;;;;;;5054966;28;20027;-76
2022/02/03 00:35:40;;;;;;;106.68;45.42;;;-1.80;99.90;;;;;;5056342;28;20132;-76
2022/02/03 00:49:10;;;;;;;115.65;44.72;;;-1.70;99.90;;;;;;5056373;28;20039;-76
2022/02/03 00:51:39;;;;;;;108.07;44.50;;;-1.70;99.90;;;;;;5054699;28;20067;-76
2022/02/03 00:54:09;;;;;;;122.18;47.80;;;-1.70;99.90;;;;;;5054781;28;20036;-76
2022/02/03 00:56:39;;;;;;;139.53;53.90;;;-1.70;99.90;;;;;;5054659;28;20025;-76
2022/02/03 00:59:11;;;;;;;136.43;52.42;;;-1.60;99.90;;;;;;5054880;28;20029;-76
2022/02/03 01:01:40;;;;;;;130.25;52.42;;;-1.70;99.90;;;;;;5054243;28;20043;-76
2022/02/03 01:04:10;;;;;;;144.75;55.20;;;-1.70;99.90;;;;;;5055371;28;20112;-76
2022/02/03 01:06:42;;;;;;;133.35;55.22;;;-1.60;99.90;;;;;;5055519;28;20046;-76
2022/02/03 01:09:10;;;;;;;135.23;54.15;;;-1.60;99.90;;;;;;5054162;28;20036;-76
2022/02/03 01:11:42;;;;;;;130.75;52.85;;;-1.50;99.90;;;;;;5055182;28;20049;-76
2022/02/03 01:14:23;;;;;;;133.93;56.13;;;-1.50;99.90;;;;;;5054095;28;20021;-76
2022/02/03 01:19:58;;;;;;;146.75;58.78;;;-1.30;99.90;;;;;;5055297;28;20063;-76
2022/02/03 01:45:18;;;;;;;134.95;38.08;;;-0.70;99.90;;;;;;5054268;28;20118;-77
2022/02/03 01:48:05;;;;;;;111.65;36.28;;;-0.70;99.90;;;;;;5051621;28;20040;-77
2022/02/03 01:52:51;;;;;;;178.40;67.43;;;-0.60;99.90;;;;;;5054765;28;20420;-77
2022/02/03 01:55:26;;;;;;;146.82;53.83;;;-0.70;99.90;;;;;;5054287;28;20036;-77
2022/02/03 01:58:10;;;;;;;124.45;41.13;;;-0.70;99.90;;;;;;5053459;28;20053;-77
2022/02/03 02:00:41;;;;;;;132.50;47.33;;;-0.70;99.90;;;;;;5053200;28;20032;-77
2022/02/03 02:03:15;;;;;;;80.07;30.83;;;-0.70;99.90;;;;;;5054400;28;20020;-77
2022/02/03 02:05:53;;;;;;;93.53;35.47;;;-0.70;99.90;;;;;;5053187;28;20112;-77
2022/02/03 02:08:24;;;;;;;87.43;30.73;;;-0.70;99.90;;;;;;5054226;28;20472;-77
2022/02/03 02:17:25;;;;;;;84.75;31.38;;;-0.70;99.90;;;;;;5054780;28;20021;-77
2022/02/03 02:19:40;;;;;;;93.20;31.73;;;-0.60;99.90;;;;;;5052876;28;20025;-77
2022/02/03 02:37:16;;;;;;;55.15;22.40;;;-0.80;99.90;;;;;;5054112;28;20036;-76
2022/02/03 02:41:38;;;;;;;65.57;25.20;;;-0.80;99.90;;;;;;5053301;28;20027;-76
2022/02/03 02:43:10;;;;;;;;;;;-0.70;99.90;;;;;;5049560;28;20029;-77
2022/02/03 02:46:00;;;;;;;56.55;22.73;;;-0.80;99.90;;;;;;5053697;28;20433;-77
2022/02/03 02:48:29;;;;;;;51.13;21.25;;;-0.70;99.90;;;;;;5052619;28;20525;-77
2022/02/03 02:51:11;;;;;;;56.55;23.90;;;-0.70;99.90;;;;;;5053451;28;20116;-76
2022/02/03 03:33:33;;;;;;;61.75;23.95;;;-0.90;99.90;;;;;;5052115;28;20029;-76
2022/02/03 03:35:45;;;;;;;58.15;21.38;;;-0.90;99.90;;;;;;5050299;28;20029;-77
2022/02/03 03:38:34;;;;;;;47.50;19.58;;;-0.90;99.90;;;;;;5052520;28;20021;-77
2022/02/03 03:41:02;;;;;;;51.70;18.90;;;-0.90;99.90;;;;;;5050203;28;20028;-76
2022/02/03 03:43:36;;;;;;;51.92;19.00;;;-0.80;99.90;;;;;;5052311;28;20051;-77
2022/02/03 03:46:09;;;;;;;51.15;18.55;;;-0.80;99.90;;;;;;5053479;28;20024;-77
2022/02/03 03:49:08;;;;;;;55.17;19.52;;;-0.70;99.90;;;;;;5053025;28;20032;-77
2022/02/03 03:51:56;;;;;;;59.20;19.35;;;-0.70;99.90;;;;;;5027046;28;20482;-77
2022/02/03 03:54:43;;;;;;;77.68;22.63;;;-0.70;99.90;;;;;;5052260;28;20481;-77
2022/02/03 05:05:21;;;;;;;;;;;-0.50;99.90;;;;;;5056691;28;20039;-77
2022/02/03 05:08:39;;;;;;;149.68;59.42;;;-0.50;99.90;;;;;;5054326;28;19908;-77
2022/02/03 05:11:33;;;;;;;94.63;38.92;;;-0.50;99.90;;;;;;5054455;28;20057;-77
2022/02/03 05:26:41;;;;;;;84.68;33.97;;;-0.50;99.90;;;;;;5055394;28;20041;-77
2022/02/03 05:47:19;;;;;;;61.38;23.33;;;-0.40;99.90;;;;;;5053794;28;20037;-77
2022/02/03 15:26:01;;;;;;;54.13;27.17;;;0.60;99.90;;;;;;5120049;27;20310;-78
2022/02/03 15:28:27;;;;;;;51.47;27.15;;;0.60;99.90;;;;;;5093176;28;20051;-79
2022/02/03 15:30:55;;;;;;;45.95;24.50;;;0.60;99.90;;;;;;5092806;28;20036;-79
2022/02/03 15:33:27;;;;;;;47.50;23.80;;;0.60;99.90;;;;;;5088407;28;20107;-81
2022/02/03 15:35:58;;;;;;;35.88;19.45;;;0.60;99.90;;;;;;5093198;28;20038;-80
2022/02/03 15:38:26;;;;;;;34.65;19.23;;;0.60;99.90;;;;;;5102341;28;20040;-80
2022/02/03 15:40:54;;;;;;;29.58;16.85;;;0.60;99.90;;;;;;5090933;28;20382;-82
2022/02/03 15:43:27;;;;;;;28.95;16.52;;;0.60;99.90;;;;;;5089694;28;20031;-82
2022/02/03 15:46:00;;;;;;;29.63;16.40;;;0.60;99.90;;;;;;5072912;28;20032;-73
2022/02/03 16:18:07;;;;;;;30.60;17.85;;;0.60;99.90;;;;;;5110943;28;20020;-73
2022/02/03 16:20:58;;;;;;;22.70;13.38;;;0.60;99.90;;;;;;5110971;28;20024;-79
2022/02/03 16:51:12;;;;;;;27.48;15.27;;;0.60;99.90;;;;;;5096484;28;20031;-74
2022/02/03 16:53:40;;;;;;;23.35;13.65;;;0.60;99.90;;;;;;5077992;28;20039;-74
2022/02/03 16:56:08;;;;;;;25.25;14.48;;;0.60;99.90;;;;;;5077880;28;20107;-74
2022/02/03 16:58:35;;;;;;;25.20;14.15;;;0.60;99.90;;;;;;5077948;28;20548;-73
2022/02/03 17:01:01;;;;;;;23.15;13.73;;;0.50;99.90;;;;;;5078236;28;20024;-73
2022/02/03 17:03:27;;;;;;;22.55;13.95;;;0.50;99.90;;;;;;5096258;28;20181;-73
2022/02/03 17:05:53;;;;;;;21.02;12.60;;;0.50;99.90;;;;;;5095772;28;20028;-72
2022/02/03 17:08:20;;;;;;;20.52;12.98;;;0.50;99.90;;;;;;5095253;28;20051;-73
2022/02/03 17:10:46;;;;;;;23.23;13.02;;;0.50;99.90;;;;;;5095210;28;20023;-73
2022/02/03 17:13:12;;;;;;;21.73;12.40;;;0.40;99.90;;;;;;5075762;28;20048;-75
2022/02/03 17:15:38;;;;;;;20.90;12.95;;;0.50;99.90;;;;;;5078055;28;20032;-74
2022/02/03 17:18:04;;;;;;;21.85;12.60;;;0.40;99.90;;;;;;5095443;28;20528;-74
2022/02/03 17:20:33;;;;;;;22.63;12.80;;;0.40;99.90;;;;;;5095443;28;20024;-74
2022/02/03 17:23:00;;;;;;;23.75;13.02;;;0.40;99.90;;;;;;5095640;28;20024;-72
2022/02/03 17:25:40;;;;;;;25.30;14.05;;;0.40;99.90;;;;;;5075444;28;20425;-72
2022/02/03 17:28:14;;;;;;;;;;;0.40;99.90;;;;;;5075879;28;20459;-75
2022/02/03 17:30:56;;;;;;;24.77;13.75;;;0.20;99.90;;;;;;5075191;28;19904;-75
2022/02/03 18:28:55;;;;;;;22.10;12.68;;;-0.20;99.90;;;;;;5074500;28;20058;-79
2022/02/03 18:30:07;;;;;;;23.38;11.90;;;-0.20;99.90;;;;;;5063241;28;20033;-80
2022/02/03 18:32:43;;;;;;;18.58;10.48;;;-0.20;99.90;;;;;;5056071;28;20028;-78
2022/02/03 18:51:07;;;;;;;18.40;10.82;;;-0.30;99.90;;;;;;5074328;28;20056;-81
2022/02/03 18:58:57;;;;;;;17.80;10.23;;;-0.30;99.90;;;;;;5053501;28;20049;-82
2022/02/03 20:08:21;;;;;;;21.45;11.35;;;-0.50;99.90;;;;;;5072553;28;20019;-73
2022/02/03 20:10:49;;;;;;;25.80;12.38;;;-0.50;99.90;;;;;;5055526;28;20028;-74
2022/02/03 20:13:15;;;;;;;20.25;11.55;;;-0.50;99.90;;;;;;5076604;28;20028;-74
2022/02/03 20:15:42;;;;;;;23.10;11.88;;;-0.60;99.90;;;;;;5076610;28;20402;-74
2022/02/03 20:18:12;;;;;;;17.65;10.48;;;-0.60;99.90;;;;;;5058649;28;20428;-74
2022/02/03 20:20:43;;;;;;;20.33;10.95;;;-0.60;99.90;;;;;;5076363;28;20060;-76
2022/02/03 20:23:13;;;;;;;16.38;9.80;;;-0.60;99.90;;;;;;5076634;28;20115;-76
2022/02/03 20:25:46;;;;;;;21.80;11.52;;;-0.70;99.90;;;;;;5094351;28;20063;-76
2022/02/03 20:28:13;;;;;;;19.17;10.77;;;-0.70;99.90;;;;;;5095288;28;20020;-74
2022/02/03 20:30:38;;;;;;;19.55;10.25;;;-0.70;99.90;;;;;;5063774;28;20020;-77
2022/02/03 20:33:04;;;;;;;16.85;9.70;;;-0.70;99.90;;;;;;5072186;28;20142;-78
2022/02/03 20:35:30;;;;;;;18.33;8.82;;;-0.80;99.90;;;;;;5076410;28;20467;-77
2022/02/03 20:37:56;;;;;;;17.40;9.90;;;-0.80;99.90;;;;;;5076361;28;20098;-77
2022/02/03 20:40:22;;;;;;;20.65;9.30;;;-0.80;99.90;;;;;;5076611;28;20475;-77
2022/02/03 20:42:47;;;;;;;18.75;9.57;;;-0.90;99.90;;;;;;5058241;28;20056;-78
2022/02/03 20:45:13;;;;;;;18.85;9.85;;;-0.80;99.90;;;;;;5076077;28;20106;-78
2022/02/03 20:47:39;;;;;;;20.10;9.55;;;-0.80;99.90;;;;;;5058229;28;20042;-77
2022/02/03 20:50:09;;;;;;;16.98;9.32;;;-0.80;99.90;;;;;;5058213;28;20433;-77
2022/02/03 20:52:35;;;;;;;17.48;9.95;;;-0.80;99.90;;;;;;5057973;28;20048;-78
2022/02/03 20:55:01;;;;;;;15.60;8.57;;;-0.90;99.90;;;;;;5076004;28;20107;-77
2022/02/03 20:57:27;;;;;;;18.98;9.95;;;-0.90;99.90;;;;;;5058076;28;20111;-77
2022/02/03 21:00:08;;;;;;;20.05;10.13;;;-0.90;99.90;;;;;;5095951;28;20082;-77
2022/02/03 21:02:51;;;;;;;18.95;9.80;;;-0.90;99.90;;;;;;5084785;28;20379;-74
2022/02/03 21:05:17;;;;;;;14.57;9.10;;;-0.90;99.90;;;;;;5037921;28;20028;-77
2022/02/03 21:07:45;;;;;;;16.27;8.75;;;-0.90;99.90;;;;;;5037763;28;20040;-78
2022/02/03 21:10:15;;;;;;;16.10;8.65;;;-1.00;99.90;;;;;;5037809;28;20021;-77
2022/02/03 21:12:41;;;;;;;14.98;8.65;;;-1.00;99.90;;;;;;5037799;28;20464;-77
2022/02/03 21:15:08;;;;;;;15.13;8.52;;;-1.00;99.90;;;;;;5055707;28;20037;-77
2022/02/03 21:17:35;;;;;;;16.02;8.75;;;-1.00;99.90;;;;;;5073713;28;20028;-77
2022/02/03 21:20:13;;;;;;;15.43;8.90;;;-1.00;99.90;;;;;;5095735;28;20032;-77
2022/02/03 21:22:39;;;;;;;11.93;7.45;;;-1.10;99.90;;;;;;5077376;28;20039;-77
2022/02/03 21:25:21;;;;;;;16.10;8.40;;;-1.10;99.90;;;;;;5087189;28;20044;-76
2022/02/03 21:27:48;;;;;;;15.45;8.63;;;-1.20;99.90;;;;;;5095605;28;20020;-76
2022/02/03 21:30:17;;;;;;;12.70;7.75;;;-1.20;99.90;;;;;;5095576;28;20073;-76
2022/02/03 21:32:43;;;;;;;15.82;8.35;;;-1.20;99.90;;;;;;5095720;28;20077;-77
2022/02/03 21:35:10;;;;;;;14.98;7.90;;;-1.20;99.90;;;;;;5095485;28;20095;-77
2022/02/03 21:37:37;;;;;;;16.20;9.75;;;-1.10;99.90;;;;;;5095455;28;20470;-77
2022/02/03 21:40:04;;;;;;;14.43;8.80;;;-1.10;99.90;;;;;;5095305;28;20039;-77
2022/02/03 21:42:30;;;;;;;16.02;8.98;;;-1.20;99.90;;;;;;5095314;28;20023;-77
2022/02/03 21:44:55;;;;;;;15.77;9.30;;;-1.20;99.90;;;;;;5095516;28;20103;-77
2022/02/03 21:47:21;;;;;;;16.52;9.38;;;-1.20;99.90;;;;;;5094053;28;20024;-77
2022/02/03 21:49:47;;;;;;;14.82;8.65;;;-1.20;99.90;;;;;;5095045;28;20024;-77
2022/02/03 21:52:19;;;;;;;14.85;9.00;;;-1.10;99.90;;;;;;5095165;28;20024;-77
2022/02/03 21:54:46;;;;;;;15.05;8.15;;;-1.10;99.90;;;;;;5093859;28;20040;-77
2022/02/03 21:57:12;;;;;;;15.73;9.13;;;-1.10;99.90;;;;;;5095040;28;20420;-77
2022/02/03 21:59:38;;;;;;;15.73;8.60;;;-1.10;99.90;;;;;;5095016;28;20504;-76
2022/02/03 22:02:08;;;;;;;14.93;8.50;;;-1.20;99.90;;;;;;5094953;28;20031;-77
2022/02/03 22:04:34;;;;;;;14.95;9.00;;;-1.20;99.90;;;;;;5094862;28;20024;-77
2022/02/03 22:07:00;;;;;;;18.88;9.40;;;-1.20;99.90;;;;;;5093493;28;20076;-77
2022/02/03 22:09:26;;;;;;;18.55;9.15;;;-1.30;99.90;;;;;;5093510;28;20036;-77
2022/02/03 22:11:51;;;;;;;17.50;8.55;;;-1.30;99.90;;;;;;5095157;28;20518;-77
2022/02/03 22:14:17;;;;;;;16.70;8.38;;;-1.30;99.90;;;;;;5094763;28;20483;-77
2022/02/03 22:16:43;;;;;;;16.08;9.50;;;-1.30;99.90;;;;;;5093317;28;20382;-77
2022/02/03 22:19:09;;;;;;;18.15;8.95;;;-1.40;99.90;;;;;;5093193;28;20091;-77
2022/02/03 22:21:49;;;;;;;17.60;8.32;;;-1.40;99.90;;;;;;5093231;28;20024;-77
2022/02/03 22:24:24;;;;;;;15.93;9.00;;;-1.40;99.90;;;;;;5087925;28;20045;-77
2022/02/03 22:46:06;;;;;;;14.75;7.78;;;-1.50;99.90;;;;;;5073776;28;20020;-75
2022/02/03 22:48:28;;;;;;;13.93;7.70;;;-1.60;99.90;;;;;;5050768;28;20029;-76
2022/02/03 22:50:55;;;;;;;13.55;6.78;;;-1.50;99.90;;;;;;5054269;28;20423;-76
2022/02/03 22:53:22;;;;;;;13.63;7.32;;;-1.60;99.90;;;;;;5035987;28;20111;-77
2022/02/03 22:55:48;;;;;;;13.35;6.88;;;-1.60;99.90;;;;;;5053811;28;20033;-77
2022/02/03 23:01:09;;;;;;;13.10;7.10;;;-1.60;99.90;;;;;;5022887;28;20025;-77
2022/02/03 23:03:36;;;;;;;10.88;6.50;;;-1.70;99.90;;;;;;5053655;28;20116;-77
2022/02/03 23:06:03;;;;;;;11.02;6.95;;;-1.60;99.90;;;;;;5035731;28;20033;-77
2022/02/03 23:08:50;;;;;;;13.13;7.32;;;-1.60;99.90;;;;;;5055254;28;20021;-77
2022/02/03 23:19:35;;;;;;;17.45;8.52;;;-1.60;99.90;;;;;;5073852;28;20459;-76
2022/02/03 23:22:14;;;;;;;11.73;6.95;;;-1.70;99.90;;;;;;5073305;28;20546;-76
2022/02/03 23:24:45;;;;;;;14.40;7.95;;;-1.70;99.90;;;;;;5073326;28;20045;-76
2022/02/03 23:29:56;;;;;;;12.07;6.85;;;-1.70;99.90;;;;;;5073906;28;20149;-76
2022/02/03 23:32:23;;;;;;;13.82;7.25;;;-1.70;99.90;;;;;;5055434;28;20107;-76
2022/02/03 23:35:00;;;;;;;14.32;7.25;;;-1.70;99.90;;;;;;5055417;28;20381;-76
2022/02/03 23:37:25;;;;;;;12.32;6.80;;;-1.70;99.90;;;;;;5055491;28;20058;-76
2022/02/03 23:40:14;;;;;;;12.77;7.10;;;-1.70;99.90;;;;;;5055784;28;20052;-76
